createdAt,value
2023-02-24T00:00:38.577Z,76.81
2023-02-24T00:03:11.723Z,76.66
2023-02-24T00:05:44.579Z,77.35
2023-02-24T00:08:14.014Z,77.44
2023-02-24T00:10:42.285Z,76.95
2023-02-24T00:13:12.195Z,77.25
2023-02-24T00:15:40.329Z,77.38
2023-02-24T00:18:09.410Z,77.52
2023-02-24T00:20:37.474Z,76.88
2023-02-24T00:23:05.545Z,77.16
2023-02-24T00:25:35.118Z,76.57
2023-02-24T00:28:03.820Z,76.40
2023-02-24T00:30:33.246Z,75.91
2023-02-24T00:33:04.033Z,75.91
2023-02-24T00:35:32.255Z,76.21
2023-02-24T00:38:01.085Z,75.54
2023-02-24T00:40:30.922Z,74.66
2023-02-24T00:43:00.398Z,74.30
2023-02-24T00:45:31.032Z,74.12
2023-02-24T00:47:59.456Z,74.61
2023-02-24T00:50:27.625Z,75.67
2023-02-24T00:52:55.673Z,74.73
2023-02-24T00:55:23.917Z,74.03
2023-02-24T00:57:52.087Z,74.31
2023-02-24T01:00:23.515Z,74.54
2023-02-24T01:02:51.568Z,74.35
2023-02-24T01:05:20.087Z,74.84
2023-02-24T01:07:48.133Z,74.49
2023-02-24T01:10:18.488Z,74.09
2023-02-24T01:12:54.034Z,73.88
2023-02-24T01:15:24.384Z,75.18
2023-02-24T01:17:52.486Z,74.77
2023-02-24T01:20:20.848Z,75.67
2023-02-24T01:22:51.005Z,75.74
2023-02-24T01:25:20.876Z,75.20
2023-02-24T01:27:49.705Z,74.64
2023-02-24T01:30:18.884Z,75.34
2023-02-24T01:32:49.152Z,77.55
2023-02-24T01:35:18.120Z,76.26
2023-02-24T01:37:46.554Z,76.59
2023-02-24T01:40:21.484Z,75.60
2023-02-24T01:42:50.658Z,76.30
2023-02-24T01:45:22.863Z,79.12
2023-02-24T01:47:53.490Z,78.14
2023-02-24T01:50:26.439Z,77.21
2023-02-24T01:52:59.063Z,77.74
2023-02-24T01:55:32.243Z,78.72
2023-02-24T01:58:05.030Z,77.20
2023-02-24T02:00:37.839Z,78.56
2023-02-24T02:03:13.330Z,78.79
2023-02-24T02:05:45.465Z,79.34
2023-02-24T02:08:15.127Z,78.20
2023-02-24T02:10:45.521Z,78.91
2023-02-24T02:13:15.888Z,78.36
2023-02-24T02:15:53.883Z,77.80
2023-02-24T02:18:33.661Z,78.10
2023-02-24T02:21:24.945Z,77.53
2023-02-24T02:24:00.653Z,79.39
2023-02-24T02:26:53.783Z,78.49
2023-02-24T02:29:38.125Z,78.49
2023-02-24T02:32:32.331Z,78.28
2023-02-24T02:35:09.531Z,78.25
2023-02-24T02:37:46.245Z,77.15
2023-02-24T02:40:23.469Z,77.15
2023-02-24T02:42:59.417Z,77.24
2023-02-24T02:45:33.467Z,77.54
2023-02-24T02:48:06.617Z,77.51
2023-02-24T02:50:43.497Z,77.55
2023-02-24T02:53:15.845Z,77.39
2023-02-24T02:55:48.664Z,77.91
2023-02-24T02:58:23.658Z,78.98
2023-02-24T03:01:02.776Z,77.63
2023-02-24T03:03:33.836Z,77.64
2023-02-24T03:06:06.684Z,77.16
2023-02-24T03:08:38.863Z,76.98
2023-02-24T03:11:10.953Z,77.42
2023-02-24T03:13:42.673Z,77.54
2023-02-24T03:16:14.008Z,76.81
2023-02-24T03:18:51.049Z,76.91
2023-02-24T03:21:33.110Z,77.88
2023-02-24T03:24:05.819Z,77.75
2023-02-24T03:26:41.983Z,78.16
2023-02-24T03:29:17.594Z,77.92
2023-02-24T03:31:49.217Z,78.79
2023-02-24T03:34:21.885Z,78.77
2023-02-24T03:36:53.268Z,78.37
2023-02-24T03:39:22.135Z,78.91
2023-02-24T03:41:56.918Z,78.94
2023-02-24T03:44:25.664Z,79.30
2023-02-24T03:46:55.845Z,78.88
2023-02-24T03:49:25.506Z,78.40
2023-02-24T03:52:08.893Z,78.42
2023-02-24T03:55:06.380Z,78.96
2023-02-24T03:57:55.025Z,78.64
2023-02-24T04:00:34.407Z,78.80
2023-02-24T04:03:15.416Z,78.49
2023-02-24T04:05:48.602Z,79.09
2023-02-24T04:08:20.681Z,79.22
2023-02-24T04:10:54.510Z,79.20
2023-02-24T04:13:35.439Z,79.54
2023-02-24T04:16:11.367Z,79.14
2023-02-24T04:18:41.668Z,78.94
2023-02-24T04:21:09.919Z,78.77
2023-02-24T04:23:43.782Z,79.68
2023-02-24T04:26:17.288Z,79.16
2023-02-24T04:28:48.645Z,79.39
2023-02-24T04:31:21.249Z,80.28
2023-02-24T04:33:50.590Z,80.18
2023-02-24T04:36:19.199Z,79.88
2023-02-24T04:38:49.820Z,80.26
2023-02-24T04:41:21.963Z,80.30
2023-02-24T04:43:51.145Z,80.06
2023-02-24T04:46:19.719Z,80.79
2023-02-24T04:48:48.481Z,80.95
2023-02-24T04:51:16.976Z,81.63
2023-02-24T04:53:45.311Z,83.55
2023-02-24T04:56:14.807Z,82.50
2023-02-24T04:58:45.465Z,82.55
2023-02-24T05:01:13.691Z,82.56
2023-02-24T05:03:43.671Z,83.51
2023-02-24T05:06:18.132Z,83.63
2023-02-24T05:08:46.575Z,84.17
2023-02-24T05:11:18.610Z,86.78
2023-02-24T05:13:47.272Z,88.10
2023-02-24T05:16:17.646Z,87.23
2023-02-24T05:18:46.001Z,86.40
2023-02-24T05:21:32.854Z,83.69
2023-02-24T05:24:06.949Z,82.51
2023-02-24T05:26:37.572Z,83.51
2023-02-24T05:29:07.331Z,82.67
2023-02-24T05:31:37.206Z,82.36
2023-02-24T05:34:07.812Z,82.56
2023-02-24T05:36:39.110Z,82.25
2023-02-24T05:39:08.152Z,82.64
2023-02-24T05:41:41.382Z,84.06
2023-02-24T05:44:12.795Z,84.29
2023-02-24T05:46:42.198Z,84.88
2023-02-24T05:49:14.801Z,84.33
2023-02-24T05:51:54.870Z,84.81
2023-02-24T05:54:25.958Z,86.53
2023-02-24T05:56:57.105Z,87.32
2023-02-24T05:59:25.480Z,88.68
2023-02-24T06:01:54.341Z,88.96
2023-02-24T06:04:39.401Z,87.29
2023-02-24T06:07:13.011Z,86.52
2023-02-24T06:09:42.962Z,86.03
2023-02-24T06:12:14.932Z,85.55
2023-02-24T06:14:45.163Z,84.56
2023-02-24T06:17:15.220Z,84.65
2023-02-24T06:19:43.853Z,83.93
2023-02-24T06:22:14.992Z,83.04
2023-02-24T06:24:44.492Z,82.23
2023-02-24T06:27:18.011Z,81.68
2023-02-24T06:29:49.942Z,81.64
2023-02-24T06:32:19.132Z,82.00
2023-02-24T06:34:47.561Z,82.57
2023-02-24T06:37:16.691Z,83.06
2023-02-24T06:39:44.988Z,82.58
2023-02-24T06:42:15.032Z,81.60
2023-02-24T06:44:43.233Z,82.13
2023-02-24T06:47:14.266Z,82.83
2023-02-24T06:49:43.055Z,81.85
2023-02-24T06:52:18.690Z,81.34
2023-02-24T06:54:49.113Z,80.80
2023-02-24T06:57:20.515Z,80.33
2023-02-24T06:59:49.118Z,80.30
2023-02-24T07:02:18.081Z,81.02
2023-02-24T07:04:46.605Z,80.54
2023-02-24T07:07:17.542Z,80.99
2023-02-24T07:09:46.174Z,80.68
2023-02-24T07:12:21.129Z,78.81
2023-02-24T07:14:51.370Z,78.97
2023-02-24T07:17:21.049Z,78.95
2023-02-24T07:19:49.010Z,77.88
2023-02-24T07:22:25.265Z,78.32
2023-02-24T07:25:00.596Z,77.70
2023-02-24T07:27:28.883Z,76.85
2023-02-24T07:29:59.351Z,75.86
2023-02-24T07:32:28.115Z,74.80
2023-02-24T07:34:56.091Z,74.84
2023-02-24T07:37:24.520Z,73.07
2023-02-24T07:39:52.969Z,73.54
2023-02-24T07:42:21.385Z,74.48
2023-02-24T07:44:49.641Z,76.40
2023-02-24T07:47:19.022Z,75.78
2023-02-24T07:49:47.037Z,72.27
2023-02-24T07:52:16.301Z,72.12
2023-02-24T07:54:44.437Z,71.63
2023-02-24T07:57:14.406Z,72.48
2023-02-24T07:59:47.795Z,71.97
2023-02-24T08:02:16.609Z,71.98
2023-02-24T08:04:50.508Z,73.06
2023-02-24T08:07:25.008Z,71.53
2023-02-24T08:10:14.603Z,71.74
2023-02-24T08:12:47.690Z,71.39
2023-02-24T08:15:22.303Z,69.24
2023-02-24T08:17:50.442Z,70.80
2023-02-24T08:20:25.208Z,71.15
2023-02-24T08:22:54.553Z,73.57
2023-02-24T08:25:24.343Z,71.75
2023-02-24T08:28:07.254Z,72.86
2023-02-24T08:30:40.302Z,72.94
2023-02-24T08:33:11.057Z,73.23
2023-02-24T08:35:45.003Z,71.32
2023-02-24T08:38:20.189Z,71.48
2023-02-24T08:40:51.602Z,73.01
2023-02-24T08:43:33.066Z,74.39
2023-02-24T08:46:04.520Z,75.54
2023-02-24T08:48:38.374Z,75.55
2023-02-24T08:51:24.450Z,75.11
2023-02-24T08:53:54.667Z,76.19
2023-02-24T08:56:27.923Z,74.64
2023-02-24T08:59:05.773Z,74.78
2023-02-24T09:01:36.154Z,73.21
2023-02-24T09:04:07.412Z,72.83
2023-02-24T09:06:44.298Z,74.49
2023-02-24T09:09:21.431Z,74.87
2023-02-24T09:11:56.123Z,75.01
2023-02-24T09:14:28.569Z,74.77
2023-02-24T09:17:06.449Z,74.09
2023-02-24T09:20:01.850Z,75.28
2023-02-24T09:22:32.234Z,75.35
2023-02-24T09:25:24.218Z,76.03
2023-02-24T09:27:57.214Z,78.01
2023-02-24T09:30:38.333Z,77.59
2023-02-24T09:33:22.511Z,78.66
2023-02-24T09:36:09.709Z,78.79
2023-02-24T09:39:10.907Z,81.83
2023-02-24T09:41:56.717Z,81.72
2023-02-24T09:44:29.969Z,82.53
2023-02-24T09:47:09.269Z,84.20
2023-02-24T09:49:48.802Z,86.92
2023-02-24T09:52:19.422Z,89.32
2023-02-24T09:55:08.358Z,90.69
2023-02-24T09:58:02.388Z,91.29
2023-02-24T10:00:35.067Z,91.00
2023-02-24T10:03:19.767Z,90.37
2023-02-24T10:05:59.157Z,89.70
2023-02-24T10:08:34.067Z,91.31
2023-02-24T10:11:08.632Z,91.59
2023-02-24T10:13:42.883Z,91.97
2023-02-24T10:16:13.182Z,90.78
2023-02-24T10:18:48.457Z,92.30
2023-02-24T10:21:30.940Z,91.18
2023-02-24T10:24:15.608Z,91.37
2023-02-24T10:27:00.813Z,92.90
2023-02-24T10:29:55.637Z,94.81
2023-02-24T10:32:34.134Z,95.36
2023-02-24T10:35:03.556Z,94.90
2023-02-24T10:37:31.648Z,95.08
2023-02-24T10:40:01.239Z,94.17
2023-02-24T10:42:34.462Z,94.65
2023-02-24T10:45:17.972Z,94.46
2023-02-24T10:47:57.135Z,94.11
2023-02-24T10:50:28.119Z,94.92
2023-02-24T10:53:26.616Z,96.19
2023-02-24T10:56:15.201Z,95.68
2023-02-24T10:58:56.915Z,97.68
2023-02-24T11:01:43.591Z,97.78
2023-02-24T11:04:33.595Z,100.00
2023-02-24T11:07:09.797Z,98.44
2023-02-24T11:09:44.196Z,97.76
2023-02-24T11:12:38.335Z,99.42
2023-02-24T11:15:36.959Z,97.39
2023-02-24T11:18:07.031Z,96.62
2023-02-24T11:20:48.622Z,97.36
2023-02-24T11:23:20.535Z,95.55
2023-02-24T11:25:53.651Z,96.78
2023-02-24T11:28:44.665Z,97.75
2023-02-24T11:31:29.700Z,97.51
2023-02-24T11:34:05.528Z,98.09
2023-02-24T11:36:43.509Z,98.91
2023-02-24T11:39:36.514Z,96.74
2023-02-24T11:42:11.422Z,99.34
2023-02-24T11:44:49.286Z,97.79
2023-02-24T11:47:23.320Z,95.96
2023-02-24T11:49:55.331Z,95.67
2023-02-24T11:52:31.062Z,93.58
2023-02-24T11:55:01.076Z,95.23
2023-02-24T11:57:37.745Z,93.26
2023-02-24T12:00:13.469Z,94.90
2023-02-24T12:02:51.279Z,93.27
2023-02-24T12:05:22.512Z,92.74
2023-02-24T12:07:53.724Z,92.82
2023-02-24T12:10:25.334Z,92.48
2023-02-24T12:13:05.238Z,94.36
2023-02-24T12:15:39.185Z,93.79
2023-02-24T12:18:17.877Z,92.44
2023-02-24T12:20:50.342Z,93.33
2023-02-24T12:23:24.364Z,93.73
2023-02-24T12:26:06.349Z,93.77
2023-02-24T12:28:57.835Z,94.04
2023-02-24T12:31:37.660Z,91.68
2023-02-24T12:34:14.569Z,91.15
2023-02-24T12:37:01.061Z,91.28
2023-02-24T12:39:32.306Z,89.01
2023-02-24T12:42:08.856Z,88.78
2023-02-24T12:44:48.125Z,89.26
2023-02-24T12:47:23.982Z,88.05
2023-02-24T12:50:09.123Z,88.94
2023-02-24T12:52:48.992Z,90.98
2023-02-24T12:55:24.796Z,89.53
2023-02-24T12:58:01.231Z,89.69
2023-02-24T13:00:38.004Z,88.37
2023-02-24T13:03:20.902Z,87.46
2023-02-24T13:06:01.150Z,85.31
2023-02-24T13:08:42.412Z,84.40
2023-02-24T13:11:19.694Z,84.10
2023-02-24T13:13:56.498Z,86.55
2023-02-24T13:16:31.616Z,85.65
2023-02-24T13:19:20.278Z,84.78
2023-02-24T13:22:09.825Z,85.50
2023-02-24T13:24:38.921Z,85.81
2023-02-24T13:27:17.428Z,87.22
2023-02-24T13:29:47.027Z,86.40
2023-02-24T13:32:33.622Z,85.07
2023-02-24T13:35:04.162Z,87.86
2023-02-24T13:37:36.743Z,87.87
2023-02-24T13:40:24.018Z,85.44
2023-02-24T13:43:01.560Z,84.98
2023-02-24T13:45:31.776Z,85.68
2023-02-24T13:48:41.756Z,86.18
2023-02-24T13:51:26.494Z,87.88
2023-02-24T13:54:08.603Z,85.02
2023-02-24T13:56:44.874Z,85.37
2023-02-24T13:59:40.621Z,85.19
2023-02-24T14:02:16.740Z,82.97
2023-02-24T14:04:50.233Z,83.92
2023-02-24T14:07:22.570Z,85.12
2023-02-24T14:09:55.402Z,84.48
2023-02-24T14:12:28.785Z,84.78
2023-02-24T14:14:57.646Z,85.75
2023-02-24T14:17:28.864Z,87.62
2023-02-24T14:20:09.064Z,88.02
2023-02-24T14:22:44.819Z,88.29
2023-02-24T14:25:15.879Z,89.00
2023-02-24T14:27:45.814Z,88.61
2023-02-24T14:30:25.287Z,88.01
2023-02-24T14:32:53.876Z,85.45
2023-02-24T14:35:34.308Z,85.27
2023-02-24T14:38:02.648Z,86.77
2023-02-24T14:40:32.330Z,86.08
2023-02-24T14:43:00.503Z,86.09
2023-02-24T14:45:30.988Z,85.73
2023-02-24T14:47:59.092Z,86.16
2023-02-24T14:50:31.341Z,86.62
2023-02-24T14:53:03.667Z,87.05
2023-02-24T14:55:37.211Z,87.31
2023-02-24T14:58:12.888Z,87.12
2023-02-24T15:00:47.111Z,89.13
2023-02-24T15:03:21.170Z,89.85
2023-02-24T15:05:51.268Z,89.40
2023-02-24T15:08:32.677Z,88.98
2023-02-24T15:11:07.877Z,88.53
2023-02-24T15:13:39.408Z,87.66
2023-02-24T15:16:13.756Z,87.32
2023-02-24T15:18:42.537Z,86.98
2023-02-24T15:21:22.422Z,86.43
2023-02-24T15:23:51.178Z,86.03
2023-02-24T15:26:28.737Z,85.27
2023-02-24T15:29:02.036Z,85.28
2023-02-24T15:31:31.398Z,84.91
2023-02-24T15:34:01.621Z,84.18
2023-02-24T15:36:33.316Z,84.21
2023-02-24T15:39:05.112Z,84.13
2023-02-24T15:41:42.561Z,84.00
2023-02-24T15:44:26.444Z,84.01
2023-02-24T15:46:54.982Z,84.33
2023-02-24T15:49:22.996Z,84.91
2023-02-24T15:51:53.001Z,85.02
2023-02-24T15:54:29.292Z,85.70
2023-02-24T15:57:00.793Z,85.96
2023-02-24T15:59:29.518Z,85.95
2023-02-24T16:01:57.662Z,86.19
2023-02-24T16:04:27.641Z,86.33
2023-02-24T16:06:59.050Z,86.19
2023-02-24T16:09:33.620Z,86.68
2023-02-24T16:12:06.875Z,86.60
2023-02-24T16:14:35.207Z,92.10
2023-02-24T16:17:08.956Z,90.52
2023-02-24T16:19:37.425Z,90.36
2023-02-24T16:22:05.417Z,90.08
2023-02-24T16:24:33.488Z,89.48
2023-02-24T16:27:03.480Z,88.78
2023-02-24T16:29:31.668Z,87.93
2023-02-24T16:32:00.045Z,88.18
2023-02-24T16:34:28.182Z,88.24
2023-02-24T16:36:56.875Z,88.87
2023-02-24T16:39:25.376Z,89.73
2023-02-24T16:41:53.745Z,91.11
2023-02-24T16:44:23.772Z,91.54
2023-02-24T16:46:53.006Z,91.78
2023-02-24T16:49:22.385Z,91.72
2023-02-24T16:51:50.394Z,91.74
2023-02-24T16:54:21.954Z,91.30
2023-02-24T16:56:50.307Z,91.29
2023-02-24T16:59:18.311Z,91.17
2023-02-24T17:01:47.834Z,91.64
2023-02-24T17:04:16.065Z,90.46
2023-02-24T17:06:44.030Z,89.39
2023-02-24T17:09:15.493Z,88.73
2023-02-24T17:11:44.483Z,88.64
2023-02-24T17:14:17.102Z,88.75
2023-02-24T17:16:45.145Z,90.19
2023-02-24T17:19:15.079Z,89.97
2023-02-24T17:21:45.425Z,90.74
2023-02-24T17:24:16.880Z,92.17
2023-02-24T17:26:45.099Z,93.25
2023-02-24T17:29:14.762Z,93.42
2023-02-24T17:31:43.368Z,93.28
2023-02-24T17:34:11.883Z,92.44
2023-02-24T17:36:41.256Z,91.84
2023-02-24T17:39:09.270Z,91.66
2023-02-24T17:41:37.251Z,91.46
2023-02-24T17:44:05.283Z,92.14
2023-02-24T17:46:33.384Z,92.96
2023-02-24T17:49:03.324Z,93.63
2023-02-24T17:51:31.605Z,92.64
2023-02-24T17:54:01.108Z,91.18
2023-02-24T17:56:29.215Z,90.99
2023-02-24T17:58:59.064Z,90.30
2023-02-24T18:01:27.112Z,90.66
2023-02-24T18:03:57.516Z,90.39
2023-02-24T18:06:25.991Z,90.16
2023-02-24T18:08:54.743Z,90.21
2023-02-24T18:11:24.161Z,90.89
2023-02-24T18:13:52.846Z,91.37
2023-02-24T18:16:21.333Z,91.05
2023-02-24T18:18:50.086Z,90.41
2023-02-24T18:21:18.278Z,89.50
2023-02-24T18:23:49.210Z,90.43
2023-02-24T18:26:17.709Z,89.75
2023-02-24T18:28:47.557Z,89.88
2023-02-24T18:31:17.758Z,91.65
2023-02-24T18:33:46.789Z,92.60
2023-02-24T18:36:15.508Z,91.97
2023-02-24T18:38:44.310Z,92.24
2023-02-24T18:41:14.276Z,93.14
2023-02-24T18:43:42.886Z,92.47
2023-02-24T18:46:15.000Z,90.59
2023-02-24T18:48:44.610Z,90.47
2023-02-24T18:51:13.718Z,90.22
2023-02-24T18:53:41.824Z,90.53
2023-02-24T18:56:12.060Z,90.52
2023-02-24T18:58:40.884Z,90.22
2023-02-24T19:01:15.482Z,90.53
2023-02-24T19:03:43.922Z,90.08
2023-02-24T19:06:13.832Z,90.69
2023-02-24T19:08:42.860Z,91.69
2023-02-24T19:11:11.900Z,91.33
2023-02-24T19:13:40.120Z,91.31
2023-02-24T19:16:08.911Z,91.74
2023-02-24T19:18:38.868Z,91.72
2023-02-24T19:21:08.241Z,91.16
2023-02-24T19:23:37.253Z,91.13
2023-02-24T19:26:05.407Z,90.83
2023-02-24T19:28:33.385Z,91.16
2023-02-24T19:31:01.726Z,91.34
2023-02-24T19:33:29.671Z,91.49
2023-02-24T19:36:01.373Z,91.51
2023-02-24T19:38:29.365Z,91.19
2023-02-24T19:40:59.336Z,91.68
2023-02-24T19:43:27.323Z,92.46
2023-02-24T19:45:55.432Z,93.34
2023-02-24T19:48:23.507Z,93.80
2023-02-24T19:50:51.524Z,92.52
2023-02-24T19:53:20.894Z,92.66
2023-02-24T19:55:50.812Z,92.24
2023-02-24T19:58:19.400Z,93.50
2023-02-24T20:00:48.385Z,93.44
2023-02-24T20:03:16.616Z,92.59
2023-02-24T20:05:44.682Z,93.13
2023-02-24T20:08:12.727Z,90.95
2023-02-24T20:10:42.481Z,90.23
2023-02-24T20:13:10.564Z,90.28
2023-02-24T20:15:38.591Z,90.13
2023-02-24T20:18:08.923Z,90.73
2023-02-24T20:20:37.423Z,91.98
2023-02-24T20:23:05.880Z,92.02
2023-02-24T20:25:33.892Z,95.49
2023-02-24T20:28:04.429Z,94.46
2023-02-24T20:30:32.442Z,93.72
2023-02-24T20:33:00.539Z,92.94
2023-02-24T20:35:28.678Z,94.62
2023-02-24T20:37:56.698Z,94.03
2023-02-24T20:40:24.749Z,93.25
2023-02-24T20:42:52.796Z,92.27
2023-02-24T20:45:22.180Z,91.43
2023-02-24T20:47:50.261Z,90.79
2023-02-24T20:50:18.539Z,89.68
2023-02-24T20:52:46.770Z,89.70
2023-02-24T20:55:14.865Z,93.49
2023-02-24T20:57:42.896Z,95.31
2023-02-24T21:00:12.283Z,95.18
2023-02-24T21:02:42.375Z,93.73
2023-02-24T21:05:11.200Z,93.55
2023-02-24T21:07:40.193Z,94.78
2023-02-24T21:10:08.616Z,95.98
2023-02-24T21:12:36.682Z,96.39
2023-02-24T21:15:05.022Z,96.20
2023-02-24T21:17:34.439Z,95.12
2023-02-24T21:20:04.123Z,93.98
2023-02-24T21:22:32.375Z,94.37
2023-02-24T21:25:00.701Z,95.14
2023-02-24T21:27:28.616Z,93.58
2023-02-24T21:29:56.590Z,92.59
2023-02-24T21:32:24.742Z,91.18
2023-02-24T21:34:52.802Z,90.79
2023-02-24T21:37:22.249Z,91.96
2023-02-24T21:39:50.412Z,91.12
2023-02-24T21:42:18.379Z,91.40
2023-02-24T21:44:46.382Z,92.85
2023-02-24T21:47:14.312Z,94.39
2023-02-24T21:49:42.269Z,93.83
2023-02-24T21:52:11.690Z,94.04
2023-02-24T21:54:42.380Z,94.55
2023-02-24T21:57:10.460Z,94.67
2023-02-24T21:59:38.450Z,95.81
2023-02-24T22:02:06.719Z,97.72
2023-02-24T22:04:35.148Z,96.14
2023-02-24T22:07:03.065Z,94.94
2023-02-24T22:09:31.056Z,94.24
2023-02-24T22:12:00.672Z,93.27
2023-02-24T22:14:28.703Z,93.10
2023-02-24T22:16:56.609Z,91.60
2023-02-24T22:19:24.680Z,90.71
2023-02-24T22:21:52.822Z,92.78
2023-02-24T22:24:22.004Z,94.54
2023-02-24T22:26:51.222Z,95.30
2023-02-24T22:29:20.976Z,95.34
2023-02-24T22:31:49.846Z,94.83
2023-02-24T22:34:18.397Z,94.80
2023-02-24T22:36:46.410Z,95.32
2023-02-24T22:39:16.708Z,96.21
2023-02-24T22:41:45.653Z,95.76
2023-02-24T22:44:14.444Z,94.46
2023-02-24T22:46:43.935Z,94.01
2023-02-24T22:49:12.235Z,94.77
2023-02-24T22:51:40.617Z,94.56
2023-02-24T22:54:08.701Z,96.40
2023-02-24T22:56:38.011Z,97.21
2023-02-24T22:59:05.989Z,98.04
2023-02-24T23:01:36.463Z,96.74
2023-02-24T23:04:08.062Z,94.73
2023-02-24T23:06:37.280Z,95.06
2023-02-24T23:09:06.506Z,95.56
2023-02-24T23:11:37.671Z,98.01
2023-02-24T23:14:10.115Z,100.00
2023-02-24T23:16:39.077Z,100.00
2023-02-24T23:19:13.070Z,100.00
2023-02-24T23:21:43.163Z,100.00
2023-02-24T23:24:14.010Z,100.00
2023-02-24T23:26:44.918Z,100.00
2023-02-24T23:29:15.719Z,100.00
2023-02-24T23:31:44.361Z,100.00
2023-02-24T23:34:14.543Z,98.38
2023-02-24T23:36:44.812Z,97.84
2023-02-24T23:39:15.663Z,98.07
2023-02-24T23:41:43.893Z,97.88
2023-02-24T23:44:12.644Z,97.13
2023-02-24T23:46:41.907Z,97.40
2023-02-24T23:49:10.000Z,97.60
2023-02-24T23:51:48.021Z,97.17
2023-02-24T23:54:17.985Z,97.58
2023-02-24T23:56:46.838Z,97.26
2023-02-24T23:59:15.437Z,97.73
